createdAt,value
2022-11-01T07:06:57.605Z,11.87
2022-11-01T07:09:57.370Z,11.25
2022-11-01T07:12:47.681Z,11.23
2022-11-01T07:15:37.384Z,11.20
2022-11-01T07:18:32.041Z,10.38
2022-11-01T07:21:19.175Z,11.15
2022-11-01T07:24:21.629Z,10.45
2022-11-01T07:27:20.555Z,10.20
2022-11-01T07:30:39.202Z,9.88
2022-11-01T07:33:25.139Z,10.10
2022-11-01T07:36:20.879Z,9.95
2022-11-01T07:39:12.884Z,9.70
2022-11-01T07:42:08.728Z,8.98
2022-11-01T07:45:06.906Z,9.23
2022-11-01T07:49:16.248Z,8.77
2022-11-01T07:51:26.695Z,8.20
2022-11-01T07:54:25.266Z,8.73
2022-11-01T07:57:18.152Z,8.77
2022-11-01T08:03:19.796Z,7.85
2022-11-01T08:06:10.519Z,8.02
2022-11-01T08:09:21.234Z,7.40
2022-11-01T08:12:14.753Z,7.10
2022-11-01T08:15:19.743Z,6.78
2022-11-01T08:18:07.547Z,6.45
2022-11-01T08:21:08.171Z,6.40
2022-11-01T08:24:02.295Z,6.18
2022-11-01T08:26:51.468Z,4.88
2022-11-01T08:29:44.477Z,5.03
2022-11-01T08:32:42.528Z,5.38
2022-11-01T08:35:37.159Z,4.72
2022-11-01T08:38:33.951Z,4.60
2022-11-01T08:41:24.128Z,4.10
2022-11-01T08:44:30.228Z,4.03
2022-11-01T08:47:31.603Z,4.07
2022-11-01T08:50:20.063Z,4.15
2022-11-01T08:53:15.281Z,3.60
2022-11-01T08:56:07.616Z,4.03
2022-11-01T08:59:13.428Z,3.67
2022-11-01T09:02:08.750Z,3.28
2022-11-01T09:05:04.427Z,3.77
2022-11-01T09:08:05.858Z,3.25
2022-11-01T09:10:51.635Z,3.78
2022-11-01T09:13:49.936Z,3.20
2022-11-01T09:16:48.041Z,3.00
2022-11-01T09:21:09.783Z,3.10
2022-11-01T09:23:03.068Z,2.75
2022-11-01T09:25:54.918Z,3.20
2022-11-01T09:28:46.700Z,2.92
2022-11-01T09:31:37.281Z,3.50
2022-11-01T09:34:38.209Z,2.95
2022-11-01T09:39:04.643Z,2.58
2022-11-01T09:40:56.933Z,2.40
2022-11-01T09:44:27.969Z,2.70
2022-11-01T09:47:34.422Z,2.63
2022-11-01T09:51:12.438Z,2.40
2022-11-01T10:05:12.000Z,2.75
2022-11-01T10:35:01.788Z,1.92
2022-11-01T10:41:55.361Z,1.20
2022-11-01T10:45:17.877Z,1.40
2022-11-01T10:48:16.169Z,1.45
2022-11-01T10:54:17.275Z,1.30
2022-11-01T10:57:17.352Z,1.60
2022-11-01T11:00:25.403Z,1.45
2022-11-01T11:03:28.605Z,1.55
2022-11-01T11:06:20.077Z,1.00
2022-11-01T11:09:43.818Z,0.93
2022-11-01T11:13:40.790Z,1.17
2022-11-01T11:52:25.488Z,0.70
2022-11-01T11:59:26.526Z,0.40
2022-11-01T12:03:30.140Z,0.50
2022-11-01T12:11:39.679Z,0.55
2022-11-01T12:13:57.906Z,0.45
2022-11-01T12:55:06.186Z,0.63
2022-11-01T12:58:18.985Z,0.60
2022-11-01T19:05:36.555Z,1.88
2022-11-01T19:08:26.596Z,1.33
2022-11-01T19:11:19.058Z,2.00
2022-11-01T19:14:08.557Z,1.80
2022-11-01T19:16:54.713Z,1.90
2022-11-01T19:19:41.621Z,1.77
2022-11-01T19:22:34.292Z,1.92
2022-11-01T19:25:24.769Z,1.90
2022-11-01T19:28:34.954Z,2.10
2022-11-01T19:31:27.312Z,1.55
2022-11-01T19:34:16.384Z,2.27
2022-11-01T19:37:06.897Z,1.55
2022-11-01T19:39:52.877Z,1.70
2022-11-01T19:42:39.335Z,1.95
2022-11-01T19:45:29.819Z,2.13
2022-11-01T19:48:25.943Z,2.20
2022-11-01T19:51:19.986Z,2.45
2022-11-01T19:54:19.553Z,2.30
2022-11-01T20:01:02.042Z,1.95
2022-11-01T20:04:17.157Z,2.30
2022-11-01T20:07:29.367Z,2.17
2022-11-01T20:10:51.955Z,2.10
2022-11-01T20:13:59.253Z,2.23
2022-11-01T20:27:21.725Z,2.00
2022-11-01T20:30:33.217Z,2.70
2022-11-01T20:33:51.141Z,2.28
2022-11-01T20:37:08.120Z,3.30
2022-11-01T20:40:34.030Z,3.00
2022-11-01T20:43:30.704Z,1.80
2022-11-01T20:46:27.826Z,2.05
2022-11-01T20:49:54.446Z,1.67
2022-11-01T20:55:54.558Z,2.05
2022-11-01T20:59:04.754Z,2.10
2022-11-01T21:02:13.296Z,2.25
2022-11-01T21:05:32.921Z,2.10
2022-11-01T21:09:15.535Z,2.10
2022-11-01T21:11:57.431Z,2.00
2022-11-01T21:14:58.861Z,1.60
2022-11-01T21:17:56.350Z,2.53
2022-11-01T21:21:29.298Z,1.77
2022-11-01T21:28:56.979Z,2.28
2022-11-01T21:33:08.984Z,1.83
2022-11-01T21:34:58.059Z,1.93
2022-11-01T21:38:02.293Z,1.73
2022-11-01T21:42:30.334Z,2.40
2022-11-01T21:44:54.261Z,2.20
2022-11-01T21:48:22.308Z,1.40
2022-11-01T21:51:22.153Z,1.92
2022-11-01T21:54:40.669Z,1.77
2022-11-01T21:57:45.299Z,1.58
2022-11-01T22:00:55.237Z,2.40
2022-11-01T22:05:21.816Z,1.35
2022-11-01T22:07:37.392Z,2.03
2022-11-01T22:10:48.608Z,2.20
2022-11-01T22:14:06.762Z,1.63
2022-11-01T22:17:22.660Z,1.40
2022-11-01T22:20:46.804Z,1.77
2022-11-01T22:24:20.073Z,1.45
2022-11-01T22:27:10.238Z,1.48
2022-11-01T22:30:12.830Z,1.92
2022-11-01T22:36:26.035Z,1.90
2022-11-01T22:39:25.936Z,1.55
2022-11-01T22:44:13.323Z,1.77
2022-11-01T22:49:25.910Z,1.90
2022-11-01T22:52:43.265Z,1.40
2022-11-01T22:59:13.220Z,1.48
2022-11-01T23:04:17.375Z,1.35
2022-11-01T23:14:43.662Z,1.20
2022-11-01T23:16:49.293Z,1.52
2022-11-01T23:20:44.470Z,1.42
2022-11-01T23:27:33.125Z,1.40
2022-11-01T23:30:38.603Z,1.30
2022-11-01T23:34:00.293Z,1.00
2022-11-01T23:36:57.279Z,1.00
2022-11-01T23:40:45.145Z,0.80
2022-11-01T23:46:14.924Z,0.90
2022-11-01T23:49:27.431Z,1.60
2022-11-01T23:56:28.003Z,1.58
2022-11-01T23:59:16.016Z,1.02
